sensor_id;sensor_type;location;lat;lon;timestamp;P1;durP1;ratioP1;P2;durP2;ratioP2
27618;SDS011;15039;50.830;4.730;2022-08-24T00:01:58;7.20;;;1.95;;
27618;SDS011;15039;50.830;4.730;2022-08-24T00:04:25;3.50;;;2.35;;
27618;SDS011;15039;50.830;4.730;2022-08-24T00:06:50;4.72;;;2.10;;
27618;SDS011;15039;50.830;4.730;2022-08-24T00:09:16;3.75;;;2.20;;
27618;SDS011;15039;50.830;4.730;2022-08-24T00:11:42;2.08;;;1.88;;
27618;SDS011;15039;50.830;4.730;2022-08-24T00:14:07;2.20;;;2.00;;
27618;SDS011;15039;50.830;4.730;2022-08-24T00:16:36;2.77;;;1.93;;
27618;SDS011;15039;50.830;4.730;2022-08-24T00:19:02;1.80;;;1.70;;
27618;SDS011;15039;50.830;4.730;2022-08-24T00:21:28;6.38;;;1.98;;
27618;SDS011;15039;50.830;4.730;2022-08-24T00:23:54;2.95;;;2.45;;
27618;SDS011;15039;50.830;4.730;2022-08-24T00:26:20;3.65;;;2.10;;
27618;SDS011;15039;50.830;4.730;2022-08-24T00:28:46;3.25;;;2.15;;
27618;SDS011;15039;50.830;4.730;2022-08-24T00:31:12;3.20;;;2.30;;
27618;SDS011;15039;50.830;4.730;2022-08-24T00:33:38;2.25;;;2.03;;
27618;SDS011;15039;50.830;4.730;2022-08-24T00:36:05;3.10;;;2.25;;
27618;SDS011;15039;50.830;4.730;2022-08-24T00:38:31;3.13;;;2.20;;
27618;SDS011;15039;50.830;4.730;2022-08-24T00:40:56;2.97;;;2.40;;
27618;SDS011;15039;50.830;4.730;2022-08-24T00:43:23;2.53;;;2.33;;
27618;SDS011;15039;50.830;4.730;2022-08-24T00:48:40;3.03;;;2.33;;
27618;SDS011;15039;50.830;4.730;2022-08-24T00:51:17;2.50;;;2.30;;
27618;SDS011;15039;50.830;4.730;2022-08-24T00:53:53;3.65;;;1.98;;
27618;SDS011;15039;50.830;4.730;2022-08-24T00:56:26;2.72;;;2.10;;
27618;SDS011;15039;50.830;4.730;2022-08-24T00:58:58;2.38;;;2.03;;
27618;SDS011;15039;50.830;4.730;2022-08-24T01:01:27;4.50;;;2.20;;
27618;SDS011;15039;50.830;4.730;2022-08-24T01:03:55;3.45;;;1.98;;
27618;SDS011;15039;50.830;4.730;2022-08-24T01:06:22;3.00;;;1.75;;
27618;SDS011;15039;50.830;4.730;2022-08-24T01:08:48;2.30;;;2.10;;
27618;SDS011;15039;50.830;4.730;2022-08-24T01:11:17;4.28;;;2.20;;
27618;SDS011;15039;50.830;4.730;2022-08-24T01:13:46;2.50;;;2.28;;
27618;SDS011;15039;50.830;4.730;2022-08-24T01:16:14;4.03;;;2.00;;
27618;SDS011;15039;50.830;4.730;2022-08-24T01:19:02;5.70;;;2.35;;
27618;SDS011;15039;50.830;4.730;2022-08-24T01:24:35;3.13;;;2.25;;
27618;SDS011;15039;50.830;4.730;2022-08-24T01:27:03;2.20;;;2.00;;
27618;SDS011;15039;50.830;4.730;2022-08-24T01:29:34;3.92;;;2.15;;
27618;SDS011;15039;50.830;4.730;2022-08-24T01:32:01;3.13;;;2.35;;
27618;SDS011;15039;50.830;4.730;2022-08-24T01:34:28;5.28;;;2.63;;
27618;SDS011;15039;50.830;4.730;2022-08-24T01:36:54;2.97;;;2.40;;
27618;SDS011;15039;50.830;4.730;2022-08-24T01:39:23;2.63;;;2.13;;
27618;SDS011;15039;50.830;4.730;2022-08-24T01:41:51;3.30;;;2.22;;
27618;SDS011;15039;50.830;4.730;2022-08-24T01:44:18;3.85;;;2.33;;
27618;SDS011;15039;50.830;4.730;2022-08-24T01:46:45;4.70;;;2.17;;
27618;SDS011;15039;50.830;4.730;2022-08-24T01:49:13;9.63;;;2.87;;
27618;SDS011;15039;50.830;4.730;2022-08-24T01:51:40;2.50;;;2.00;;
27618;SDS011;15039;50.830;4.730;2022-08-24T01:54:07;3.60;;;2.20;;
27618;SDS011;15039;50.830;4.730;2022-08-24T01:56:34;1.80;;;1.70;;
27618;SDS011;15039;50.830;4.730;2022-08-24T01:59:00;3.10;;;2.30;;
27618;SDS011;15039;50.830;4.730;2022-08-24T02:01:27;3.60;;;2.33;;
27618;SDS011;15039;50.830;4.730;2022-08-24T02:03:55;4.38;;;2.63;;
27618;SDS011;15039;50.830;4.730;2022-08-24T02:06:23;2.53;;;2.30;;
27618;SDS011;15039;50.830;4.730;2022-08-24T02:08:48;2.42;;;2.20;;
27618;SDS011;15039;50.830;4.730;2022-08-24T02:11:14;3.03;;;2.40;;
27618;SDS011;15039;50.830;4.730;2022-08-24T02:13:40;2.88;;;2.50;;
27618;SDS011;15039;50.830;4.730;2022-08-24T02:16:06;3.00;;;2.30;;
27618;SDS011;15039;50.830;4.730;2022-08-24T02:18:33;4.45;;;2.42;;
27618;SDS011;15039;50.830;4.730;2022-08-24T02:21:00;2.83;;;2.38;;
27618;SDS011;15039;50.830;4.730;2022-08-24T02:23:26;3.35;;;2.80;;
27618;SDS011;15039;50.830;4.730;2022-08-24T02:25:58;3.35;;;2.35;;
27618;SDS011;15039;50.830;4.730;2022-08-24T02:28:27;3.40;;;3.10;;
27618;SDS011;15039;50.830;4.730;2022-08-24T02:30:53;3.22;;;2.78;;
27618;SDS011;15039;50.830;4.730;2022-08-24T02:33:19;3.50;;;2.83;;
27618;SDS011;15039;50.830;4.730;2022-08-24T02:35:47;3.55;;;3.25;;
27618;SDS011;15039;50.830;4.730;2022-08-24T02:38:14;3.80;;;3.30;;
27618;SDS011;15039;50.830;4.730;2022-08-24T02:40:40;3.45;;;3.08;;
27618;SDS011;15039;50.830;4.730;2022-08-24T02:43:06;3.20;;;2.90;;
27618;SDS011;15039;50.830;4.730;2022-08-24T02:45:32;2.95;;;2.70;;
27618;SDS011;15039;50.830;4.730;2022-08-24T02:48:01;2.78;;;2.50;;
27618;SDS011;15039;50.830;4.730;2022-08-24T02:50:28;4.45;;;2.60;;
27618;SDS011;15039;50.830;4.730;2022-08-24T02:52:53;3.17;;;2.90;;
27618;SDS011;15039;50.830;4.730;2022-08-24T02:55:19;3.95;;;2.67;;
27618;SDS011;15039;50.830;4.730;2022-08-24T02:57:45;2.95;;;2.58;;
27618;SDS011;15039;50.830;4.730;2022-08-24T03:00:13;4.70;;;2.70;;
27618;SDS011;15039;50.830;4.730;2022-08-24T03:02:40;3.05;;;2.75;;
27618;SDS011;15039;50.830;4.730;2022-08-24T03:05:07;3.08;;;2.70;;
27618;SDS011;15039;50.830;4.730;2022-08-24T03:07:34;3.92;;;2.90;;
27618;SDS011;15039;50.830;4.730;2022-08-24T03:10:00;4.30;;;3.15;;
27618;SDS011;15039;50.830;4.730;2022-08-24T03:12:26;3.78;;;3.08;;
27618;SDS011;15039;50.830;4.730;2022-08-24T03:14:52;2.72;;;2.35;;
27618;SDS011;15039;50.830;4.730;2022-08-24T03:17:17;3.70;;;2.55;;
27618;SDS011;15039;50.830;4.730;2022-08-24T03:19:43;6.68;;;3.00;;
27618;SDS011;15039;50.830;4.730;2022-08-24T03:22:09;2.50;;;2.30;;
27618;SDS011;15039;50.830;4.730;2022-08-24T03:24:34;2.47;;;2.28;;
27618;SDS011;15039;50.830;4.730;2022-08-24T03:27:00;3.55;;;2.80;;
27618;SDS011;15039;50.830;4.730;2022-08-24T03:29:28;5.80;;;2.70;;
27618;SDS011;15039;50.830;4.730;2022-08-24T03:32:00;4.43;;;2.95;;
27618;SDS011;15039;50.830;4.730;2022-08-24T03:34:26;2.70;;;2.40;;
27618;SDS011;15039;50.830;4.730;2022-08-24T03:36:52;4.65;;;2.20;;
27618;SDS011;15039;50.830;4.730;2022-08-24T03:39:18;4.05;;;2.00;;
27618;SDS011;15039;50.830;4.730;2022-08-24T03:41:43;2.20;;;2.10;;
27618;SDS011;15039;50.830;4.730;2022-08-24T03:44:09;2.70;;;2.40;;
27618;SDS011;15039;50.830;4.730;2022-08-24T03:46:35;2.70;;;2.50;;
27618;SDS011;15039;50.830;4.730;2022-08-24T03:49:03;4.32;;;2.33;;
27618;SDS011;15039;50.830;4.730;2022-08-24T03:51:32;2.80;;;2.60;;
27618;SDS011;15039;50.830;4.730;2022-08-24T03:54:00;3.67;;;2.45;;
27618;SDS011;15039;50.830;4.730;2022-08-24T03:56:28;3.42;;;2.80;;
27618;SDS011;15039;50.830;4.730;2022-08-24T03:58:53;3.30;;;2.90;;
27618;SDS011;15039;50.830;4.730;2022-08-24T04:01:19;3.72;;;3.05;;
27618;SDS011;15039;50.830;4.730;2022-08-24T04:03:46;4.88;;;3.40;;
27618;SDS011;15039;50.830;4.730;2022-08-24T04:06:13;4.28;;;3.65;;
27618;SDS011;15039;50.830;4.730;2022-08-24T04:08:40;4.40;;;3.30;;
27618;SDS011;15039;50.830;4.730;2022-08-24T04:11:14;4.18;;;3.78;;
27618;SDS011;15039;50.830;4.730;2022-08-24T04:13:42;4.45;;;3.65;;
27618;SDS011;15039;50.830;4.730;2022-08-24T04:16:09;4.55;;;3.97;;
27618;SDS011;15039;50.830;4.730;2022-08-24T04:18:37;3.97;;;3.33;;
27618;SDS011;15039;50.830;4.730;2022-08-24T04:21:04;4.30;;;3.67;;
27618;SDS011;15039;50.830;4.730;2022-08-24T04:23:30;3.60;;;2.95;;
27618;SDS011;15039;50.830;4.730;2022-08-24T04:26:01;4.40;;;3.00;;
27618;SDS011;15039;50.830;4.730;2022-08-24T04:28:28;2.97;;;2.72;;
27618;SDS011;15039;50.830;4.730;2022-08-24T04:30:55;3.05;;;2.75;;
27618;SDS011;15039;50.830;4.730;2022-08-24T04:33:25;3.60;;;3.20;;
27618;SDS011;15039;50.830;4.730;2022-08-24T04:35:51;3.75;;;2.92;;
27618;SDS011;15039;50.830;4.730;2022-08-24T04:38:17;3.30;;;3.00;;
27618;SDS011;15039;50.830;4.730;2022-08-24T04:40:44;3.85;;;3.40;;
27618;SDS011;15039;50.830;4.730;2022-08-24T04:43:11;4.68;;;3.35;;
27618;SDS011;15039;50.830;4.730;2022-08-24T04:45:43;7.95;;;3.17;;
27618;SDS011;15039;50.830;4.730;2022-08-24T04:48:10;3.72;;;3.47;;
27618;SDS011;15039;50.830;4.730;2022-08-24T04:50:37;4.03;;;3.55;;
27618;SDS011;15039;50.830;4.730;2022-08-24T04:53:04;3.70;;;3.40;;
27618;SDS011;15039;50.830;4.730;2022-08-24T04:55:31;4.75;;;3.25;;
27618;SDS011;15039;50.830;4.730;2022-08-24T04:57:56;3.90;;;3.47;;
27618;SDS011;15039;50.830;4.730;2022-08-24T05:00:22;5.25;;;2.95;;
27618;SDS011;15039;50.830;4.730;2022-08-24T05:02:48;5.38;;;3.78;;
27618;SDS011;15039;50.830;4.730;2022-08-24T05:05:14;8.10;;;3.83;;
27618;SDS011;15039;50.830;4.730;2022-08-24T05:07:40;3.60;;;3.10;;
27618;SDS011;15039;50.830;4.730;2022-08-24T05:10:06;5.72;;;3.50;;
27618;SDS011;15039;50.830;4.730;2022-08-24T05:12:35;4.25;;;3.40;;
27618;SDS011;15039;50.830;4.730;2022-08-24T05:15:01;4.07;;;3.67;;
27618;SDS011;15039;50.830;4.730;2022-08-24T05:17:27;7.45;;;3.78;;
27618;SDS011;15039;50.830;4.730;2022-08-24T05:19:53;6.47;;;4.15;;
27618;SDS011;15039;50.830;4.730;2022-08-24T05:22:19;4.45;;;4.05;;
27618;SDS011;15039;50.830;4.730;2022-08-24T05:24:45;5.35;;;4.47;;
27618;SDS011;15039;50.830;4.730;2022-08-24T05:27:10;7.57;;;4.65;;
27618;SDS011;15039;50.830;4.730;2022-08-24T05:29:36;5.68;;;4.40;;
27618;SDS011;15039;50.830;4.730;2022-08-24T05:32:02;6.93;;;5.22;;
27618;SDS011;15039;50.830;4.730;2022-08-24T05:34:27;6.88;;;4.80;;
27618;SDS011;15039;50.830;4.730;2022-08-24T05:36:53;6.50;;;4.97;;
27618;SDS011;15039;50.830;4.730;2022-08-24T05:39:19;9.18;;;8.10;;
27618;SDS011;15039;50.830;4.730;2022-08-24T05:41:45;14.07;;;11.23;;
27618;SDS011;15039;50.830;4.730;2022-08-24T05:44:12;13.15;;;11.50;;
27618;SDS011;15039;50.830;4.730;2022-08-24T05:46:39;17.73;;;14.35;;
27618;SDS011;15039;50.830;4.730;2022-08-24T05:49:04;20.48;;;16.50;;
27618;SDS011;15039;50.830;4.730;2022-08-24T05:51:32;21.77;;;17.30;;
27618;SDS011;15039;50.830;4.730;2022-08-24T05:53:57;26.33;;;20.40;;
27618;SDS011;15039;50.830;4.730;2022-08-24T05:56:24;29.00;;;21.60;;
27618;SDS011;15039;50.830;4.730;2022-08-24T05:58:50;29.15;;;22.45;;
27618;SDS011;15039;50.830;4.730;2022-08-24T06:01:20;30.02;;;24.88;;
27618;SDS011;15039;50.830;4.730;2022-08-24T06:03:48;29.52;;;24.27;;
27618;SDS011;15039;50.830;4.730;2022-08-24T06:06:15;30.83;;;24.13;;
27618;SDS011;15039;50.830;4.730;2022-08-24T06:08:43;30.48;;;24.77;;
27618;SDS011;15039;50.830;4.730;2022-08-24T06:11:18;27.42;;;24.05;;
27618;SDS011;15039;50.830;4.730;2022-08-24T06:14:11;26.80;;;23.42;;
27618;SDS011;15039;50.830;4.730;2022-08-24T06:16:40;28.30;;;22.65;;
27618;SDS011;15039;50.830;4.730;2022-08-24T06:19:08;29.25;;;23.02;;
27618;SDS011;15039;50.830;4.730;2022-08-24T06:21:34;32.35;;;23.58;;
27618;SDS011;15039;50.830;4.730;2022-08-24T06:24:02;30.83;;;23.30;;
27618;SDS011;15039;50.830;4.730;2022-08-24T06:26:29;25.90;;;22.48;;
27618;SDS011;15039;50.830;4.730;2022-08-24T06:29:32;26.83;;;22.58;;
27618;SDS011;15039;50.830;4.730;2022-08-24T06:31:58;26.13;;;22.55;;
27618;SDS011;15039;50.830;4.730;2022-08-24T06:34:24;25.88;;;20.52;;
27618;SDS011;15039;50.830;4.730;2022-08-24T06:36:50;23.13;;;20.75;;
27618;SDS011;15039;50.830;4.730;2022-08-24T06:39:16;23.98;;;20.23;;
27618;SDS011;15039;50.830;4.730;2022-08-24T06:41:42;23.05;;;20.42;;
27618;SDS011;15039;50.830;4.730;2022-08-24T06:44:08;22.73;;;19.88;;
27618;SDS011;15039;50.830;4.730;2022-08-24T06:46:34;23.23;;;20.65;;
27618;SDS011;15039;50.830;4.730;2022-08-24T06:49:00;23.65;;;19.58;;
27618;SDS011;15039;50.830;4.730;2022-08-24T06:51:26;23.30;;;20.13;;
27618;SDS011;15039;50.830;4.730;2022-08-24T06:53:52;23.20;;;19.38;;
27618;SDS011;15039;50.830;4.730;2022-08-24T06:56:20;25.30;;;20.58;;
27618;SDS011;15039;50.830;4.730;2022-08-24T06:58:46;31.20;;;18.75;;
27618;SDS011;15039;50.830;4.730;2022-08-24T07:01:18;22.88;;;18.23;;
27618;SDS011;15039;50.830;4.730;2022-08-24T07:03:46;20.38;;;18.15;;
27618;SDS011;15039;50.830;4.730;2022-08-24T07:06:12;22.40;;;17.95;;
27618;SDS011;15039;50.830;4.730;2022-08-24T07:08:38;21.77;;;18.60;;
27618;SDS011;15039;50.830;4.730;2022-08-24T07:11:06;18.92;;;16.92;;
27618;SDS011;15039;50.830;4.730;2022-08-24T07:13:33;20.65;;;17.58;;
27618;SDS011;15039;50.830;4.730;2022-08-24T07:15:59;19.73;;;17.17;;
27618;SDS011;15039;50.830;4.730;2022-08-24T07:18:25;19.63;;;17.33;;
27618;SDS011;15039;50.830;4.730;2022-08-24T07:20:51;20.95;;;17.88;;
27618;SDS011;15039;50.830;4.730;2022-08-24T07:23:17;18.58;;;16.67;;
27618;SDS011;15039;50.830;4.730;2022-08-24T07:25:44;20.67;;;16.77;;
27618;SDS011;15039;50.830;4.730;2022-08-24T07:28:11;19.98;;;18.02;;
27618;SDS011;15039;50.830;4.730;2022-08-24T07:30:38;20.25;;;16.05;;
27618;SDS011;15039;50.830;4.730;2022-08-24T07:33:04;21.42;;;16.05;;
27618;SDS011;15039;50.830;4.730;2022-08-24T07:35:30;19.35;;;16.90;;
27618;SDS011;15039;50.830;4.730;2022-08-24T07:37:57;19.25;;;17.20;;
27618;SDS011;15039;50.830;4.730;2022-08-24T07:40:25;21.15;;;15.95;;
27618;SDS011;15039;50.830;4.730;2022-08-24T07:42:52;19.35;;;16.17;;
27618;SDS011;15039;50.830;4.730;2022-08-24T07:45:19;19.73;;;17.20;;
27618;SDS011;15039;50.830;4.730;2022-08-24T07:47:47;21.08;;;17.10;;
27618;SDS011;15039;50.830;4.730;2022-08-24T07:50:14;19.23;;;17.15;;
27618;SDS011;15039;50.830;4.730;2022-08-24T07:52:41;22.25;;;17.10;;
27618;SDS011;15039;50.830;4.730;2022-08-24T07:55:07;20.58;;;17.15;;
27618;SDS011;15039;50.830;4.730;2022-08-24T07:57:35;25.13;;;16.85;;
27618;SDS011;15039;50.830;4.730;2022-08-24T08:00:03;21.52;;;15.93;;
27618;SDS011;15039;50.830;4.730;2022-08-24T08:02:31;19.73;;;15.45;;
27618;SDS011;15039;50.830;4.730;2022-08-24T08:04:57;20.90;;;14.38;;
27618;SDS011;15039;50.830;4.730;2022-08-24T08:07:23;22.23;;;14.73;;
27618;SDS011;15039;50.830;4.730;2022-08-24T08:09:49;23.15;;;14.40;;
27618;SDS011;15039;50.830;4.730;2022-08-24T08:12:16;22.75;;;14.05;;
27618;SDS011;15039;50.830;4.730;2022-08-24T08:14:43;21.08;;;14.65;;
27618;SDS011;15039;50.830;4.730;2022-08-24T08:17:10;17.95;;;13.25;;
27618;SDS011;15039;50.830;4.730;2022-08-24T08:19:37;18.33;;;13.90;;
27618;SDS011;15039;50.830;4.730;2022-08-24T08:22:02;15.85;;;13.45;;
27618;SDS011;15039;50.830;4.730;2022-08-24T08:24:47;16.63;;;14.13;;
27618;SDS011;15039;50.830;4.730;2022-08-24T08:27:14;16.13;;;13.07;;
27618;SDS011;15039;50.830;4.730;2022-08-24T08:29:41;14.68;;;13.00;;
27618;SDS011;15039;50.830;4.730;2022-08-24T08:32:07;17.52;;;13.43;;
27618;SDS011;15039;50.830;4.730;2022-08-24T08:37:01;17.13;;;13.38;;
27618;SDS011;15039;50.830;4.730;2022-08-24T08:39:28;14.65;;;13.10;;
27618;SDS011;15039;50.830;4.730;2022-08-24T08:55:56;13.88;;;10.43;;
27618;SDS011;15039;50.830;4.730;2022-08-24T08:58:57;12.80;;;10.15;;
27618;SDS011;15039;50.830;4.730;2022-08-24T09:01:38;12.55;;;10.38;;
27618;SDS011;15039;50.830;4.730;2022-08-24T09:04:15;10.52;;;9.38;;
27618;SDS011;15039;50.830;4.730;2022-08-24T09:06:53;12.88;;;9.88;;
27618;SDS011;15039;50.830;4.730;2022-08-24T09:09:29;14.15;;;9.70;;
27618;SDS011;15039;50.830;4.730;2022-08-24T09:15:13;11.50;;;9.38;;
27618;SDS011;15039;50.830;4.730;2022-08-24T09:23:43;10.90;;;5.90;;
27618;SDS011;15039;50.830;4.730;2022-08-24T09:36:07;6.78;;;3.83;;
27618;SDS011;15039;50.830;4.730;2022-08-24T09:49:26;5.28;;;4.15;;
27618;SDS011;15039;50.830;4.730;2022-08-24T10:00:26;2.83;;;2.50;;
27618;SDS011;15039;50.830;4.730;2022-08-24T10:02:58;4.90;;;2.08;;
27618;SDS011;15039;50.830;4.730;2022-08-24T10:08:39;3.72;;;1.90;;
27618;SDS011;15039;50.830;4.730;2022-08-24T10:30:44;5.90;;;0.80;;
27618;SDS011;15039;50.830;4.730;2022-08-24T10:33:37;2.33;;;0.73;;
27618;SDS011;15039;50.830;4.730;2022-08-24T10:39:11;1.95;;;1.00;;
27618;SDS011;15039;50.830;4.730;2022-08-24T10:45:25;2.83;;;0.85;;
27618;SDS011;15039;50.830;4.730;2022-08-24T10:48:15;2.38;;;0.93;;
27618;SDS011;15039;50.830;4.730;2022-08-24T10:53:33;4.53;;;1.08;;
27618;SDS011;15039;50.830;4.730;2022-08-24T10:56:03;1.77;;;0.85;;
27618;SDS011;15039;50.830;4.730;2022-08-24T10:58:36;4.60;;;1.90;;
27618;SDS011;15039;50.830;4.730;2022-08-24T11:01:36;3.10;;;0.90;;
27618;SDS011;15039;50.830;4.730;2022-08-24T11:06:34;2.80;;;1.17;;
27618;SDS011;15039;50.830;4.730;2022-08-24T11:11:38;1.65;;;1.08;;
27618;SDS011;15039;50.830;4.730;2022-08-24T11:14:21;3.65;;;1.52;;
27618;SDS011;15039;50.830;4.730;2022-08-24T11:16:51;3.75;;;1.40;;
27618;SDS011;15039;50.830;4.730;2022-08-24T11:21:53;4.25;;;1.40;;
27618;SDS011;15039;50.830;4.730;2022-08-24T11:24:29;2.38;;;1.25;;
27618;SDS011;15039;50.830;4.730;2022-08-24T11:32:30;2.05;;;1.00;;
27618;SDS011;15039;50.830;4.730;2022-08-24T11:37:52;2.55;;;1.20;;
27618;SDS011;15039;50.830;4.730;2022-08-24T11:40:29;2.90;;;1.10;;
27618;SDS011;15039;50.830;4.730;2022-08-24T11:43:21;1.98;;;1.33;;
27618;SDS011;15039;50.830;4.730;2022-08-24T11:48:28;2.50;;;1.23;;
27618;SDS011;15039;50.830;4.730;2022-08-24T12:02:43;3.30;;;1.20;;
27618;SDS011;15039;50.830;4.730;2022-08-24T12:11:00;3.17;;;1.38;;
27618;SDS011;15039;50.830;4.730;2022-08-24T12:13:50;6.15;;;1.00;;
27618;SDS011;15039;50.830;4.730;2022-08-24T12:21:18;2.97;;;1.33;;
27618;SDS011;15039;50.830;4.730;2022-08-24T12:23:49;3.53;;;1.00;;
27618;SDS011;15039;50.830;4.730;2022-08-24T12:29:06;3.70;;;1.20;;
27618;SDS011;15039;50.830;4.730;2022-08-24T12:34:40;3.08;;;1.52;;
27618;SDS011;15039;50.830;4.730;2022-08-24T12:43:22;2.88;;;1.58;;
27618;SDS011;15039;50.830;4.730;2022-08-24T12:46:02;2.60;;;1.38;;
27618;SDS011;15039;50.830;4.730;2022-08-24T12:59:47;5.63;;;1.38;;
27618;SDS011;15039;50.830;4.730;2022-08-24T13:04:43;3.20;;;1.10;;
27618;SDS011;15039;50.830;4.730;2022-08-24T13:07:29;5.05;;;1.40;;
27618;SDS011;15039;50.830;4.730;2022-08-24T13:10:06;2.20;;;1.40;;
27618;SDS011;15039;50.830;4.730;2022-08-24T13:23:03;2.97;;;1.30;;
27618;SDS011;15039;50.830;4.730;2022-08-24T13:25:51;2.33;;;1.20;;
27618;SDS011;15039;50.830;4.730;2022-08-24T13:28:41;2.35;;;1.40;;
27618;SDS011;15039;50.830;4.730;2022-08-24T13:50:33;6.28;;;1.52;;
27618;SDS011;15039;50.830;4.730;2022-08-24T13:56:11;1.85;;;1.10;;
27618;SDS011;15039;50.830;4.730;2022-08-24T13:59:03;4.63;;;0.95;;
27618;SDS011;15039;50.830;4.730;2022-08-24T14:16:02;5.18;;;1.00;;
27618;SDS011;15039;50.830;4.730;2022-08-24T14:21:21;5.65;;;1.30;;
27618;SDS011;15039;50.830;4.730;2022-08-24T14:24:00;4.22;;;1.17;;
27618;SDS011;15039;50.830;4.730;2022-08-24T14:34:30;3.92;;;1.20;;
27618;SDS011;15039;50.830;4.730;2022-08-24T14:37:01;1.13;;;0.90;;
27618;SDS011;15039;50.830;4.730;2022-08-24T14:39:49;1.63;;;1.10;;
27618;SDS011;15039;50.830;4.730;2022-08-24T14:42:50;2.72;;;1.20;;
27618;SDS011;15039;50.830;4.730;2022-08-24T14:48:03;3.42;;;1.00;;
27618;SDS011;15039;50.830;4.730;2022-08-24T14:53:46;2.05;;;1.08;;
27618;SDS011;15039;50.830;4.730;2022-08-24T15:05:09;3.33;;;1.00;;
27618;SDS011;15039;50.830;4.730;2022-08-24T15:10:44;3.80;;;0.88;;
27618;SDS011;15039;50.830;4.730;2022-08-24T15:13:46;1.33;;;0.85;;
27618;SDS011;15039;50.830;4.730;2022-08-24T15:16:21;1.70;;;0.80;;
27618;SDS011;15039;50.830;4.730;2022-08-24T15:21:55;2.10;;;1.03;;
27618;SDS011;15039;50.830;4.730;2022-08-24T15:24:37;1.88;;;0.98;;
27618;SDS011;15039;50.830;4.730;2022-08-24T15:27:07;7.28;;;1.40;;
27618;SDS011;15039;50.830;4.730;2022-08-24T15:29:46;1.65;;;1.05;;
27618;SDS011;15039;50.830;4.730;2022-08-24T15:32:20;3.03;;;1.20;;
27618;SDS011;15039;50.830;4.730;2022-08-24T15:34:50;2.37;;;1.10;;
27618;SDS011;15039;50.830;4.730;2022-08-24T15:37:25;2.53;;;1.10;;
27618;SDS011;15039;50.830;4.730;2022-08-24T15:39:57;1.83;;;1.00;;
27618;SDS011;15039;50.830;4.730;2022-08-24T15:42:26;2.58;;;1.13;;
27618;SDS011;15039;50.830;4.730;2022-08-24T15:44:54;1.30;;;0.95;;
27618;SDS011;15039;50.830;4.730;2022-08-24T15:47:27;4.53;;;1.50;;
27618;SDS011;15039;50.830;4.730;2022-08-24T15:50:05;1.85;;;1.00;;
27618;SDS011;15039;50.830;4.730;2022-08-24T15:56:11;1.92;;;0.75;;
27618;SDS011;15039;50.830;4.730;2022-08-24T16:03:54;5.75;;;1.20;;
27618;SDS011;15039;50.830;4.730;2022-08-24T16:06:46;5.28;;;1.40;;
27618;SDS011;15039;50.830;4.730;2022-08-24T16:17:26;2.15;;;0.93;;
27618;SDS011;15039;50.830;4.730;2022-08-24T16:20:29;8.75;;;1.25;;
27618;SDS011;15039;50.830;4.730;2022-08-24T16:22:58;4.80;;;0.98;;
27618;SDS011;15039;50.830;4.730;2022-08-24T16:25:27;2.38;;;0.95;;
27618;SDS011;15039;50.830;4.730;2022-08-24T16:28:03;1.55;;;0.95;;
27618;SDS011;15039;50.830;4.730;2022-08-24T16:33:10;3.58;;;1.02;;
27618;SDS011;15039;50.830;4.730;2022-08-24T16:35:56;6.10;;;1.23;;
27618;SDS011;15039;50.830;4.730;2022-08-24T16:38:24;3.40;;;1.50;;
27618;SDS011;15039;50.830;4.730;2022-08-24T16:40:50;4.72;;;1.20;;
27618;SDS011;15039;50.830;4.730;2022-08-24T16:43:16;2.35;;;1.10;;
27618;SDS011;15039;50.830;4.730;2022-08-24T16:45:42;2.72;;;1.00;;
27618;SDS011;15039;50.830;4.730;2022-08-24T16:48:08;3.60;;;1.25;;
27618;SDS011;15039;50.830;4.730;2022-08-24T16:50:33;4.53;;;0.70;;
27618;SDS011;15039;50.830;4.730;2022-08-24T16:52:59;3.78;;;0.90;;
27618;SDS011;15039;50.830;4.730;2022-08-24T16:55:25;2.08;;;1.10;;
27618;SDS011;15039;50.830;4.730;2022-08-24T16:57:52;6.70;;;1.23;;
27618;SDS011;15039;50.830;4.730;2022-08-24T17:00:18;4.38;;;1.20;;
27618;SDS011;15039;50.830;4.730;2022-08-24T17:02:46;4.13;;;1.20;;
27618;SDS011;15039;50.830;4.730;2022-08-24T17:05:13;2.42;;;1.17;;
27618;SDS011;15039;50.830;4.730;2022-08-24T17:07:40;3.08;;;0.95;;
27618;SDS011;15039;50.830;4.730;2022-08-24T17:10:07;1.33;;;1.00;;
27618;SDS011;15039;50.830;4.730;2022-08-24T17:12:34;2.05;;;1.00;;
27618;SDS011;15039;50.830;4.730;2022-08-24T17:15:04;3.28;;;1.10;;
27618;SDS011;15039;50.830;4.730;2022-08-24T17:17:32;1.80;;;1.13;;
27618;SDS011;15039;50.830;4.730;2022-08-24T17:19:58;2.13;;;0.90;;
27618;SDS011;15039;50.830;4.730;2022-08-24T17:22:24;7.47;;;3.25;;
27618;SDS011;15039;50.830;4.730;2022-08-24T17:24:51;8.38;;;3.22;;
27618;SDS011;15039;50.830;4.730;2022-08-24T17:27:19;4.45;;;1.88;;
27618;SDS011;15039;50.830;4.730;2022-08-24T17:29:48;3.72;;;2.20;;
27618;SDS011;15039;50.830;4.730;2022-08-24T17:32:14;3.85;;;2.33;;
27618;SDS011;15039;50.830;4.730;2022-08-24T17:34:40;4.57;;;1.92;;
27618;SDS011;15039;50.830;4.730;2022-08-24T17:37:06;2.10;;;1.60;;
27618;SDS011;15039;50.830;4.730;2022-08-24T17:39:33;4.35;;;1.58;;
27618;SDS011;15039;50.830;4.730;2022-08-24T17:41:59;4.35;;;1.40;;
27618;SDS011;15039;50.830;4.730;2022-08-24T17:44:27;11.55;;;1.85;;
27618;SDS011;15039;50.830;4.730;2022-08-24T17:46:56;10.07;;;1.77;;
27618;SDS011;15039;50.830;4.730;2022-08-24T17:49:24;6.28;;;1.35;;
27618;SDS011;15039;50.830;4.730;2022-08-24T17:51:50;1.85;;;0.90;;
27618;SDS011;15039;50.830;4.730;2022-08-24T17:54:17;7.47;;;1.10;;
27618;SDS011;15039;50.830;4.730;2022-08-24T17:56:42;4.82;;;1.30;;
27618;SDS011;15039;50.830;4.730;2022-08-24T17:59:11;5.65;;;1.38;;
27618;SDS011;15039;50.830;4.730;2022-08-24T18:01:44;1.92;;;1.13;;
27618;SDS011;15039;50.830;4.730;2022-08-24T18:04:24;3.28;;;1.60;;
27618;SDS011;15039;50.830;4.730;2022-08-24T18:06:52;4.03;;;1.35;;
27618;SDS011;15039;50.830;4.730;2022-08-24T18:09:25;4.35;;;1.38;;
27618;SDS011;15039;50.830;4.730;2022-08-24T18:11:57;1.90;;;1.50;;
27618;SDS011;15039;50.830;4.730;2022-08-24T18:14:24;4.50;;;1.25;;
27618;SDS011;15039;50.830;4.730;2022-08-24T18:16:51;5.35;;;1.42;;
27618;SDS011;15039;50.830;4.730;2022-08-24T18:19:17;4.38;;;1.30;;
27618;SDS011;15039;50.830;4.730;2022-08-24T18:21:43;2.63;;;1.08;;
27618;SDS011;15039;50.830;4.730;2022-08-24T18:24:09;7.43;;;1.55;;
27618;SDS011;15039;50.830;4.730;2022-08-24T18:26:35;5.15;;;1.30;;
27618;SDS011;15039;50.830;4.730;2022-08-24T18:29:15;1.70;;;1.13;;
27618;SDS011;15039;50.830;4.730;2022-08-24T18:31:43;3.22;;;1.40;;
27618;SDS011;15039;50.830;4.730;2022-08-24T18:34:14;4.68;;;1.42;;
27618;SDS011;15039;50.830;4.730;2022-08-24T18:36:42;1.50;;;1.10;;
27618;SDS011;15039;50.830;4.730;2022-08-24T18:39:08;3.55;;;1.48;;
27618;SDS011;15039;50.830;4.730;2022-08-24T18:41:35;9.00;;;1.58;;
27618;SDS011;15039;50.830;4.730;2022-08-24T18:44:03;8.30;;;1.73;;
27618;SDS011;15039;50.830;4.730;2022-08-24T18:46:30;12.13;;;1.60;;
27618;SDS011;15039;50.830;4.730;2022-08-24T18:48:57;6.28;;;1.30;;
27618;SDS011;15039;50.830;4.730;2022-08-24T18:51:24;4.07;;;1.55;;
27618;SDS011;15039;50.830;4.730;2022-08-24T18:53:51;4.82;;;1.30;;
27618;SDS011;15039;50.830;4.730;2022-08-24T18:56:20;3.70;;;1.30;;
27618;SDS011;15039;50.830;4.730;2022-08-24T18:58:46;3.83;;;1.40;;
27618;SDS011;15039;50.830;4.730;2022-08-24T19:01:11;1.75;;;1.30;;
27618;SDS011;15039;50.830;4.730;2022-08-24T19:03:37;2.63;;;1.20;;
27618;SDS011;15039;50.830;4.730;2022-08-24T19:06:03;3.70;;;1.40;;
27618;SDS011;15039;50.830;4.730;2022-08-24T19:08:29;6.88;;;1.10;;
27618;SDS011;15039;50.830;4.730;2022-08-24T19:10:55;2.53;;;1.20;;
27618;SDS011;15039;50.830;4.730;2022-08-24T19:13:20;2.80;;;1.30;;